sensor_id;sensor_type;location;lat;lon;timestamp;P1;durP1;ratioP1;P2;durP2;ratioP2
3700;SDS011;1866;48.374;10.766;2023-06-14T00:01:14;107.60;;;7.00;;
3700;SDS011;1866;48.374;10.766;2023-06-14T00:03:42;105.60;;;7.20;;
3700;SDS011;1866;48.374;10.766;2023-06-14T00:06:09;106.87;;;7.33;;
3700;SDS011;1866;48.374;10.766;2023-06-14T00:08:36;112.57;;;7.90;;
3700;SDS011;1866;48.374;10.766;2023-06-14T00:11:04;108.60;;;7.60;;
3700;SDS011;1866;48.374;10.766;2023-06-14T00:13:31;106.40;;;6.90;;
3700;SDS011;1866;48.374;10.766;2023-06-14T00:15:58;107.90;;;7.57;;
3700;SDS011;1866;48.374;10.766;2023-06-14T00:18:25;109.57;;;7.80;;
3700;SDS011;1866;48.374;10.766;2023-06-14T00:20:54;106.40;;;7.10;;
3700;SDS011;1866;48.374;10.766;2023-06-14T00:23:21;107.10;;;7.40;;
3700;SDS011;1866;48.374;10.766;2023-06-14T00:25:48;107.10;;;7.87;;
3700;SDS011;1866;48.374;10.766;2023-06-14T00:28:16;107.67;;;7.40;;
3700;SDS011;1866;48.374;10.766;2023-06-14T00:30:43;107.13;;;7.63;;
3700;SDS011;1866;48.374;10.766;2023-06-14T00:33:11;107.27;;;6.90;;
3700;SDS011;1866;48.374;10.766;2023-06-14T00:35:38;107.50;;;7.83;;
3700;SDS011;1866;48.374;10.766;2023-06-14T00:38:05;106.70;;;7.03;;
3700;SDS011;1866;48.374;10.766;2023-06-14T00:40:32;107.97;;;7.60;;
3700;SDS011;1866;48.374;10.766;2023-06-14T00:42:59;109.30;;;7.10;;
3700;SDS011;1866;48.374;10.766;2023-06-14T00:45:28;106.70;;;7.60;;
3700;SDS011;1866;48.374;10.766;2023-06-14T00:47:56;107.80;;;7.50;;
3700;SDS011;1866;48.374;10.766;2023-06-14T00:50:25;110.37;;;7.70;;
3700;SDS011;1866;48.374;10.766;2023-06-14T00:52:52;108.47;;;7.37;;
3700;SDS011;1866;48.374;10.766;2023-06-14T00:55:19;106.87;;;7.00;;
3700;SDS011;1866;48.374;10.766;2023-06-14T00:57:46;109.87;;;8.00;;
3700;SDS011;1866;48.374;10.766;2023-06-14T01:00:14;113.30;;;8.33;;
3700;SDS011;1866;48.374;10.766;2023-06-14T01:02:43;108.37;;;7.90;;
3700;SDS011;1866;48.374;10.766;2023-06-14T01:05:09;108.63;;;7.40;;
3700;SDS011;1866;48.374;10.766;2023-06-14T01:07:41;110.30;;;7.83;;
3700;SDS011;1866;48.374;10.766;2023-06-14T01:10:20;109.17;;;8.03;;
3700;SDS011;1866;48.374;10.766;2023-06-14T01:12:58;108.17;;;8.00;;
3700;SDS011;1866;48.374;10.766;2023-06-14T01:15:30;111.17;;;7.77;;
3700;SDS011;1866;48.374;10.766;2023-06-14T01:17:59;111.37;;;8.30;;
3700;SDS011;1866;48.374;10.766;2023-06-14T01:20:29;107.00;;;7.37;;
3700;SDS011;1866;48.374;10.766;2023-06-14T01:22:59;107.50;;;8.20;;
3700;SDS011;1866;48.374;10.766;2023-06-14T01:25:26;109.00;;;7.93;;
3700;SDS011;1866;48.374;10.766;2023-06-14T01:27:53;106.33;;;7.80;;
3700;SDS011;1866;48.374;10.766;2023-06-14T01:30:23;107.60;;;7.40;;
3700;SDS011;1866;48.374;10.766;2023-06-14T01:32:52;110.40;;;8.03;;
3700;SDS011;1866;48.374;10.766;2023-06-14T01:35:21;108.53;;;7.63;;
3700;SDS011;1866;48.374;10.766;2023-06-14T01:37:48;108.30;;;8.10;;
3700;SDS011;1866;48.374;10.766;2023-06-14T01:40:18;107.87;;;8.03;;
3700;SDS011;1866;48.374;10.766;2023-06-14T01:42:47;109.37;;;7.90;;
3700;SDS011;1866;48.374;10.766;2023-06-14T01:45:15;112.67;;;8.47;;
3700;SDS011;1866;48.374;10.766;2023-06-14T01:47:43;109.80;;;8.43;;
3700;SDS011;1866;48.374;10.766;2023-06-14T01:50:11;106.10;;;7.23;;
3700;SDS011;1866;48.374;10.766;2023-06-14T01:52:39;107.00;;;7.13;;
3700;SDS011;1866;48.374;10.766;2023-06-14T01:55:06;107.23;;;7.53;;
3700;SDS011;1866;48.374;10.766;2023-06-14T01:57:35;107.97;;;7.90;;
3700;SDS011;1866;48.374;10.766;2023-06-14T02:00:02;108.70;;;8.00;;
3700;SDS011;1866;48.374;10.766;2023-06-14T02:02:31;106.90;;;7.50;;
3700;SDS011;1866;48.374;10.766;2023-06-14T02:04:58;107.97;;;8.00;;
3700;SDS011;1866;48.374;10.766;2023-06-14T02:07:24;111.40;;;8.03;;
3700;SDS011;1866;48.374;10.766;2023-06-14T02:09:51;111.27;;;8.00;;
3700;SDS011;1866;48.374;10.766;2023-06-14T02:12:18;109.57;;;8.60;;
3700;SDS011;1866;48.374;10.766;2023-06-14T02:14:46;116.10;;;7.50;;
3700;SDS011;1866;48.374;10.766;2023-06-14T02:17:13;109.67;;;8.77;;
3700;SDS011;1866;48.374;10.766;2023-06-14T02:19:41;108.70;;;7.87;;
3700;SDS011;1866;48.374;10.766;2023-06-14T02:22:08;107.67;;;7.63;;
3700;SDS011;1866;48.374;10.766;2023-06-14T02:24:35;111.50;;;7.93;;
3700;SDS011;1866;48.374;10.766;2023-06-14T02:27:02;112.77;;;7.80;;
3700;SDS011;1866;48.374;10.766;2023-06-14T02:29:29;110.23;;;9.03;;
3700;SDS011;1866;48.374;10.766;2023-06-14T02:31:57;110.60;;;8.00;;
3700;SDS011;1866;48.374;10.766;2023-06-14T02:34:24;109.10;;;8.17;;
3700;SDS011;1866;48.374;10.766;2023-06-14T02:36:51;107.47;;;7.70;;
3700;SDS011;1866;48.374;10.766;2023-06-14T02:39:18;108.10;;;7.97;;
3700;SDS011;1866;48.374;10.766;2023-06-14T02:41:48;108.77;;;8.17;;
3700;SDS011;1866;48.374;10.766;2023-06-14T02:44:15;108.70;;;7.90;;
3700;SDS011;1866;48.374;10.766;2023-06-14T02:46:44;107.10;;;7.47;;
3700;SDS011;1866;48.374;10.766;2023-06-14T02:49:12;110.50;;;8.60;;
3700;SDS011;1866;48.374;10.766;2023-06-14T02:51:39;107.87;;;7.70;;
3700;SDS011;1866;48.374;10.766;2023-06-14T02:54:06;107.87;;;7.67;;
3700;SDS011;1866;48.374;10.766;2023-06-14T02:56:33;115.20;;;8.57;;
3700;SDS011;1866;48.374;10.766;2023-06-14T02:59:00;116.57;;;9.23;;
3700;SDS011;1866;48.374;10.766;2023-06-14T03:01:27;109.80;;;8.40;;
3700;SDS011;1866;48.374;10.766;2023-06-14T03:03:59;108.43;;;8.87;;
3700;SDS011;1866;48.374;10.766;2023-06-14T03:06:29;110.17;;;8.00;;
3700;SDS011;1866;48.374;10.766;2023-06-14T03:08:56;108.77;;;8.33;;
3700;SDS011;1866;48.374;10.766;2023-06-14T03:11:26;108.40;;;8.10;;
3700;SDS011;1866;48.374;10.766;2023-06-14T03:13:53;109.30;;;8.63;;
3700;SDS011;1866;48.374;10.766;2023-06-14T03:16:21;110.57;;;8.80;;
3700;SDS011;1866;48.374;10.766;2023-06-14T03:18:49;108.20;;;7.73;;
3700;SDS011;1866;48.374;10.766;2023-06-14T03:21:16;107.37;;;7.57;;
3700;SDS011;1866;48.374;10.766;2023-06-14T03:23:46;108.77;;;8.53;;
3700;SDS011;1866;48.374;10.766;2023-06-14T03:26:13;109.87;;;9.13;;
3700;SDS011;1866;48.374;10.766;2023-06-14T03:28:42;110.50;;;9.13;;
3700;SDS011;1866;48.374;10.766;2023-06-14T03:31:09;115.83;;;8.57;;
3700;SDS011;1866;48.374;10.766;2023-06-14T03:33:36;107.90;;;8.17;;
3700;SDS011;1866;48.374;10.766;2023-06-14T03:36:03;119.33;;;8.43;;
3700;SDS011;1866;48.374;10.766;2023-06-14T03:38:31;107.60;;;8.53;;
3700;SDS011;1866;48.374;10.766;2023-06-14T03:40:59;109.50;;;8.73;;
3700;SDS011;1866;48.374;10.766;2023-06-14T03:43:26;110.80;;;8.63;;
3700;SDS011;1866;48.374;10.766;2023-06-14T03:45:55;110.57;;;8.87;;
3700;SDS011;1866;48.374;10.766;2023-06-14T03:48:22;107.97;;;8.37;;
3700;SDS011;1866;48.374;10.766;2023-06-14T03:50:48;114.77;;;10.10;;
3700;SDS011;1866;48.374;10.766;2023-06-14T03:53:15;108.23;;;9.07;;
3700;SDS011;1866;48.374;10.766;2023-06-14T03:55:42;110.20;;;8.97;;
3700;SDS011;1866;48.374;10.766;2023-06-14T03:58:11;112.53;;;9.07;;
3700;SDS011;1866;48.374;10.766;2023-06-14T04:00:38;108.67;;;8.73;;
3700;SDS011;1866;48.374;10.766;2023-06-14T04:03:05;108.37;;;8.47;;
3700;SDS011;1866;48.374;10.766;2023-06-14T04:05:32;109.00;;;7.80;;
3700;SDS011;1866;48.374;10.766;2023-06-14T04:07:58;110.37;;;8.57;;
3700;SDS011;1866;48.374;10.766;2023-06-14T04:10:26;108.27;;;8.27;;
3700;SDS011;1866;48.374;10.766;2023-06-14T04:12:53;109.57;;;8.77;;
3700;SDS011;1866;48.374;10.766;2023-06-14T04:15:22;116.13;;;8.70;;
3700;SDS011;1866;48.374;10.766;2023-06-14T04:17:48;108.37;;;8.03;;
3700;SDS011;1866;48.374;10.766;2023-06-14T04:59:50;109.40;;;7.03;;
3700;SDS011;1866;48.374;10.766;2023-06-14T05:02:19;107.70;;;7.20;;
3700;SDS011;1866;48.374;10.766;2023-06-14T05:04:47;105.57;;;7.57;;
3700;SDS011;1866;48.374;10.766;2023-06-14T05:07:15;106.30;;;6.90;;
3700;SDS011;1866;48.374;10.766;2023-06-14T05:09:42;104.53;;;7.17;;
3700;SDS011;1866;48.374;10.766;2023-06-14T05:12:09;107.37;;;8.33;;
3700;SDS011;1866;48.374;10.766;2023-06-14T05:14:36;106.30;;;7.70;;
3700;SDS011;1866;48.374;10.766;2023-06-14T05:17:03;107.00;;;7.47;;
3700;SDS011;1866;48.374;10.766;2023-06-14T05:19:30;111.27;;;8.20;;
3700;SDS011;1866;48.374;10.766;2023-06-14T05:21:57;108.70;;;7.77;;
3700;SDS011;1866;48.374;10.766;2023-06-14T05:24:26;105.17;;;7.70;;
3700;SDS011;1866;48.374;10.766;2023-06-14T05:26:54;106.17;;;7.30;;
3700;SDS011;1866;48.374;10.766;2023-06-14T05:29:21;105.07;;;7.47;;
3700;SDS011;1866;48.374;10.766;2023-06-14T05:31:48;107.20;;;7.03;;
3700;SDS011;1866;48.374;10.766;2023-06-14T05:34:15;107.17;;;7.90;;
3700;SDS011;1866;48.374;10.766;2023-06-14T05:36:42;108.93;;;7.77;;
3700;SDS011;1866;48.374;10.766;2023-06-14T05:39:09;110.50;;;8.77;;
3700;SDS011;1866;48.374;10.766;2023-06-14T05:41:37;105.67;;;7.60;;
3700;SDS011;1866;48.374;10.766;2023-06-14T05:44:04;104.60;;;6.80;;
3700;SDS011;1866;48.374;10.766;2023-06-14T05:46:31;107.67;;;8.17;;
3700;SDS011;1866;48.374;10.766;2023-06-14T05:48:58;112.93;;;7.50;;
3700;SDS011;1866;48.374;10.766;2023-06-14T05:51:24;105.90;;;7.00;;
3700;SDS011;1866;48.374;10.766;2023-06-14T05:53:51;109.17;;;8.43;;
3700;SDS011;1866;48.374;10.766;2023-06-14T05:56:19;107.37;;;7.07;;
3700;SDS011;1866;48.374;10.766;2023-06-14T05:58:47;108.90;;;7.23;;
3700;SDS011;1866;48.374;10.766;2023-06-14T06:01:15;114.23;;;7.27;;
3700;SDS011;1866;48.374;10.766;2023-06-14T06:03:42;107.80;;;7.97;;
3700;SDS011;1866;48.374;10.766;2023-06-14T06:06:11;106.60;;;8.27;;
3700;SDS011;1866;48.374;10.766;2023-06-14T06:08:38;104.20;;;6.37;;
3700;SDS011;1866;48.374;10.766;2023-06-14T06:11:05;107.10;;;7.60;;
3700;SDS011;1866;48.374;10.766;2023-06-14T06:13:32;107.47;;;6.67;;
3700;SDS011;1866;48.374;10.766;2023-06-14T06:16:01;110.13;;;10.10;;
3700;SDS011;1866;48.374;10.766;2023-06-14T06:18:28;104.67;;;7.00;;
3700;SDS011;1866;48.374;10.766;2023-06-14T06:20:55;104.40;;;7.20;;
3700;SDS011;1866;48.374;10.766;2023-06-14T06:23:22;105.77;;;7.37;;
3700;SDS011;1866;48.374;10.766;2023-06-14T06:25:49;110.83;;;6.83;;
3700;SDS011;1866;48.374;10.766;2023-06-14T06:28:16;108.97;;;7.10;;
3700;SDS011;1866;48.374;10.766;2023-06-14T06:30:43;107.20;;;6.67;;
3700;SDS011;1866;48.374;10.766;2023-06-14T06:33:12;104.27;;;7.00;;
3700;SDS011;1866;48.374;10.766;2023-06-14T06:35:40;105.90;;;6.87;;
3700;SDS011;1866;48.374;10.766;2023-06-14T06:38:06;103.60;;;6.63;;
3700;SDS011;1866;48.374;10.766;2023-06-14T06:40:34;103.17;;;7.00;;
3700;SDS011;1866;48.374;10.766;2023-06-14T06:43:01;109.20;;;7.57;;
3700;SDS011;1866;48.374;10.766;2023-06-14T06:45:28;103.87;;;6.50;;
3700;SDS011;1866;48.374;10.766;2023-06-14T06:47:55;104.30;;;6.43;;
3700;SDS011;1866;48.374;10.766;2023-06-14T06:50:24;105.53;;;6.83;;
3700;SDS011;1866;48.374;10.766;2023-06-14T06:52:51;109.23;;;7.20;;
3700;SDS011;1866;48.374;10.766;2023-06-14T06:55:18;103.10;;;6.77;;
3700;SDS011;1866;48.374;10.766;2023-06-14T06:57:45;104.27;;;7.10;;
3700;SDS011;1866;48.374;10.766;2023-06-14T07:00:13;105.10;;;6.87;;
3700;SDS011;1866;48.374;10.766;2023-06-14T07:02:40;104.77;;;7.33;;
3700;SDS011;1866;48.374;10.766;2023-06-14T07:05:07;104.20;;;6.80;;
3700;SDS011;1866;48.374;10.766;2023-06-14T07:07:35;102.07;;;6.13;;
3700;SDS011;1866;48.374;10.766;2023-06-14T07:10:03;102.97;;;6.60;;
3700;SDS011;1866;48.374;10.766;2023-06-14T07:12:31;108.90;;;6.43;;
3700;SDS011;1866;48.374;10.766;2023-06-14T07:14:58;102.20;;;6.47;;
3700;SDS011;1866;48.374;10.766;2023-06-14T07:17:26;103.07;;;6.27;;
3700;SDS011;1866;48.374;10.766;2023-06-14T07:19:52;103.30;;;6.10;;
3700;SDS011;1866;48.374;10.766;2023-06-14T07:22:19;101.10;;;6.17;;
3700;SDS011;1866;48.374;10.766;2023-06-14T07:24:47;104.67;;;6.37;;
3700;SDS011;1866;48.374;10.766;2023-06-14T07:27:14;100.97;;;5.90;;
3700;SDS011;1866;48.374;10.766;2023-06-14T07:29:41;102.00;;;6.03;;
3700;SDS011;1866;48.374;10.766;2023-06-14T07:32:08;100.07;;;5.93;;
3700;SDS011;1866;48.374;10.766;2023-06-14T07:34:35;103.37;;;6.73;;
3700;SDS011;1866;48.374;10.766;2023-06-14T07:37:02;119.23;;;6.70;;
3700;SDS011;1866;48.374;10.766;2023-06-14T07:39:29;104.60;;;6.60;;
3700;SDS011;1866;48.374;10.766;2023-06-14T07:41:57;102.90;;;7.07;;
3700;SDS011;1866;48.374;10.766;2023-06-14T07:46:53;104.80;;;6.43;;
3700;SDS011;1866;48.374;10.766;2023-06-14T07:49:23;111.00;;;8.90;;
3700;SDS011;1866;48.374;10.766;2023-06-14T07:51:50;102.57;;;6.60;;
3700;SDS011;1866;48.374;10.766;2023-06-14T07:54:17;103.60;;;6.80;;
3700;SDS011;1866;48.374;10.766;2023-06-14T07:56:43;102.00;;;6.43;;
3700;SDS011;1866;48.374;10.766;2023-06-14T07:59:12;103.93;;;6.20;;
3700;SDS011;1866;48.374;10.766;2023-06-14T08:01:39;100.40;;;5.67;;
3700;SDS011;1866;48.374;10.766;2023-06-14T08:04:12;106.90;;;6.77;;
3700;SDS011;1866;48.374;10.766;2023-06-14T08:06:39;102.13;;;6.40;;
3700;SDS011;1866;48.374;10.766;2023-06-14T08:09:09;103.30;;;6.30;;
3700;SDS011;1866;48.374;10.766;2023-06-14T08:11:36;104.80;;;6.07;;
3700;SDS011;1866;48.374;10.766;2023-06-14T08:14:03;104.50;;;6.70;;
3700;SDS011;1866;48.374;10.766;2023-06-14T08:16:31;101.50;;;5.90;;
3700;SDS011;1866;48.374;10.766;2023-06-14T08:18:58;101.33;;;5.90;;
3700;SDS011;1866;48.374;10.766;2023-06-14T08:21:25;101.00;;;5.77;;
3700;SDS011;1866;48.374;10.766;2023-06-14T08:23:54;102.30;;;5.70;;
3700;SDS011;1866;48.374;10.766;2023-06-14T08:31:14;101.60;;;6.13;;
3700;SDS011;1866;48.374;10.766;2023-06-14T10:10:01;100.50;;;6.10;;
3700;SDS011;1866;48.374;10.766;2023-06-14T10:12:28;100.00;;;5.83;;
3700;SDS011;1866;48.374;10.766;2023-06-14T10:14:56;101.77;;;5.70;;
3700;SDS011;1866;48.374;10.766;2023-06-14T10:17:27;103.77;;;5.77;;
3700;SDS011;1866;48.374;10.766;2023-06-14T10:20:06;98.87;;;5.40;;
3700;SDS011;1866;48.374;10.766;2023-06-14T10:22:42;100.00;;;5.60;;
3700;SDS011;1866;48.374;10.766;2023-06-14T10:25:25;99.10;;;5.95;;
3700;SDS011;1866;48.374;10.766;2023-06-14T10:28:01;98.43;;;5.47;;
3700;SDS011;1866;48.374;10.766;2023-06-14T10:33:05;99.80;;;5.20;;
3700;SDS011;1866;48.374;10.766;2023-06-14T10:35:32;100.10;;;5.97;;
3700;SDS011;1866;48.374;10.766;2023-06-14T10:38:06;99.10;;;5.50;;
3700;SDS011;1866;48.374;10.766;2023-06-14T10:40:34;99.80;;;5.60;;
3700;SDS011;1866;48.374;10.766;2023-06-14T10:43:01;99.03;;;6.70;;
3700;SDS011;1866;48.374;10.766;2023-06-14T10:48:41;99.50;;;5.83;;
3700;SDS011;1866;48.374;10.766;2023-06-14T10:51:15;98.97;;;5.60;;
3700;SDS011;1866;48.374;10.766;2023-06-14T10:53:45;102.53;;;5.87;;
3700;SDS011;1866;48.374;10.766;2023-06-14T10:56:23;97.83;;;5.67;;
3700;SDS011;1866;48.374;10.766;2023-06-14T10:58:56;98.77;;;5.70;;
3700;SDS011;1866;48.374;10.766;2023-06-14T11:01:35;98.00;;;5.40;;
3700;SDS011;1866;48.374;10.766;2023-06-14T11:04:08;98.27;;;5.07;;
3700;SDS011;1866;48.374;10.766;2023-06-14T11:06:46;98.07;;;5.43;;
3700;SDS011;1866;48.374;10.766;2023-06-14T11:09:27;108.63;;;6.13;;
3700;SDS011;1866;48.374;10.766;2023-06-14T11:12:24;99.13;;;5.60;;
3700;SDS011;1866;48.374;10.766;2023-06-14T11:14:55;97.87;;;5.23;;
3700;SDS011;1866;48.374;10.766;2023-06-14T11:17:22;100.67;;;5.67;;
3700;SDS011;1866;48.374;10.766;2023-06-14T11:19:50;98.57;;;5.40;;
3700;SDS011;1866;48.374;10.766;2023-06-14T11:22:38;97.83;;;4.97;;
3700;SDS011;1866;48.374;10.766;2023-06-14T11:25:08;99.70;;;5.70;;
3700;SDS011;1866;48.374;10.766;2023-06-14T11:27:35;98.03;;;5.17;;
3700;SDS011;1866;48.374;10.766;2023-06-14T11:30:02;98.47;;;5.80;;
3700;SDS011;1866;48.374;10.766;2023-06-14T11:32:33;97.27;;;4.87;;
3700;SDS011;1866;48.374;10.766;2023-06-14T11:35:01;101.27;;;5.17;;
3700;SDS011;1866;48.374;10.766;2023-06-14T11:37:29;97.80;;;5.47;;
3700;SDS011;1866;48.374;10.766;2023-06-14T11:39:58;98.17;;;5.47;;
3700;SDS011;1866;48.374;10.766;2023-06-14T11:42:26;98.00;;;5.13;;
3700;SDS011;1866;48.374;10.766;2023-06-14T11:44:53;97.80;;;5.13;;
3700;SDS011;1866;48.374;10.766;2023-06-14T11:47:20;99.20;;;5.80;;
3700;SDS011;1866;48.374;10.766;2023-06-14T11:49:48;99.37;;;5.47;;
3700;SDS011;1866;48.374;10.766;2023-06-14T11:52:16;98.40;;;5.17;;
3700;SDS011;1866;48.374;10.766;2023-06-14T11:54:44;97.30;;;5.20;;
3700;SDS011;1866;48.374;10.766;2023-06-14T11:57:14;98.20;;;5.10;;
3700;SDS011;1866;48.374;10.766;2023-06-14T11:59:43;100.37;;;6.17;;
3700;SDS011;1866;48.374;10.766;2023-06-14T12:02:13;98.03;;;4.97;;
3700;SDS011;1866;48.374;10.766;2023-06-14T12:04:41;101.70;;;5.10;;
3700;SDS011;1866;48.374;10.766;2023-06-14T12:07:08;99.17;;;5.47;;
3700;SDS011;1866;48.374;10.766;2023-06-14T12:09:38;98.60;;;5.87;;
3700;SDS011;1866;48.374;10.766;2023-06-14T12:12:06;98.20;;;5.30;;
3700;SDS011;1866;48.374;10.766;2023-06-14T12:14:34;98.03;;;5.60;;
3700;SDS011;1866;48.374;10.766;2023-06-14T12:17:04;107.50;;;5.40;;
3700;SDS011;1866;48.374;10.766;2023-06-14T12:19:32;102.23;;;5.20;;
3700;SDS011;1866;48.374;10.766;2023-06-14T12:22:00;101.37;;;5.50;;
3700;SDS011;1866;48.374;10.766;2023-06-14T12:24:30;103.07;;;5.70;;
3700;SDS011;1866;48.374;10.766;2023-06-14T12:26:59;98.70;;;5.27;;
3700;SDS011;1866;48.374;10.766;2023-06-14T12:29:28;100.70;;;5.33;;
3700;SDS011;1866;48.374;10.766;2023-06-14T12:31:54;97.50;;;5.20;;
3700;SDS011;1866;48.374;10.766;2023-06-14T12:34:22;98.63;;;5.50;;
3700;SDS011;1866;48.374;10.766;2023-06-14T12:36:49;96.47;;;5.00;;
3700;SDS011;1866;48.374;10.766;2023-06-14T12:39:16;97.13;;;4.63;;
3700;SDS011;1866;48.374;10.766;2023-06-14T12:41:43;99.43;;;5.77;;
3700;SDS011;1866;48.374;10.766;2023-06-14T12:44:12;97.17;;;4.80;;
3700;SDS011;1866;48.374;10.766;2023-06-14T12:46:39;96.03;;;4.50;;
3700;SDS011;1866;48.374;10.766;2023-06-14T12:49:07;99.20;;;5.00;;
3700;SDS011;1866;48.374;10.766;2023-06-14T12:51:35;97.80;;;4.67;;
3700;SDS011;1866;48.374;10.766;2023-06-14T12:54:02;99.83;;;5.67;;
3700;SDS011;1866;48.374;10.766;2023-06-14T12:56:29;100.97;;;5.80;;
3700;SDS011;1866;48.374;10.766;2023-06-14T12:58:55;96.70;;;5.07;;
3700;SDS011;1866;48.374;10.766;2023-06-14T13:01:24;102.33;;;5.67;;
3700;SDS011;1866;48.374;10.766;2023-06-14T13:03:51;99.97;;;5.10;;
3700;SDS011;1866;48.374;10.766;2023-06-14T13:06:20;97.57;;;5.37;;
3700;SDS011;1866;48.374;10.766;2023-06-14T13:08:48;97.57;;;5.10;;
3700;SDS011;1866;48.374;10.766;2023-06-14T13:11:15;97.40;;;5.37;;
3700;SDS011;1866;48.374;10.766;2023-06-14T13:13:42;97.00;;;4.93;;
3700;SDS011;1866;48.374;10.766;2023-06-14T13:16:09;99.37;;;4.87;;
3700;SDS011;1866;48.374;10.766;2023-06-14T13:18:39;97.03;;;4.97;;
3700;SDS011;1866;48.374;10.766;2023-06-14T13:21:06;98.90;;;5.47;;
3700;SDS011;1866;48.374;10.766;2023-06-14T13:23:33;96.30;;;4.87;;
3700;SDS011;1866;48.374;10.766;2023-06-14T13:26:00;97.33;;;4.90;;
3700;SDS011;1866;48.374;10.766;2023-06-14T13:28:27;98.13;;;5.10;;
3700;SDS011;1866;48.374;10.766;2023-06-14T13:30:54;99.87;;;5.10;;
3700;SDS011;1866;48.374;10.766;2023-06-14T13:33:21;101.00;;;5.20;;
3700;SDS011;1866;48.374;10.766;2023-06-14T13:35:50;96.60;;;4.90;;
3700;SDS011;1866;48.374;10.766;2023-06-14T13:38:17;97.33;;;4.67;;
3700;SDS011;1866;48.374;10.766;2023-06-14T13:40:44;96.13;;;4.83;;
3700;SDS011;1866;48.374;10.766;2023-06-14T13:43:11;98.90;;;4.93;;
3700;SDS011;1866;48.374;10.766;2023-06-14T13:45:38;99.47;;;5.10;;
3700;SDS011;1866;48.374;10.766;2023-06-14T13:48:05;98.80;;;5.33;;
3700;SDS011;1866;48.374;10.766;2023-06-14T13:50:32;96.40;;;4.77;;
3700;SDS011;1866;48.374;10.766;2023-06-14T13:53:01;97.50;;;5.10;;
3700;SDS011;1866;48.374;10.766;2023-06-14T13:55:28;99.30;;;5.50;;
3700;SDS011;1866;48.374;10.766;2023-06-14T13:57:55;97.67;;;5.40;;
3700;SDS011;1866;48.374;10.766;2023-06-14T14:00:22;101.40;;;6.00;;
3700;SDS011;1866;48.374;10.766;2023-06-14T14:07:43;98.30;;;5.13;;
3700;SDS011;1866;48.374;10.766;2023-06-14T14:10:12;95.37;;;4.90;;
3700;SDS011;1866;48.374;10.766;2023-06-14T14:12:39;97.27;;;4.97;;
3700;SDS011;1866;48.374;10.766;2023-06-14T14:15:06;97.57;;;5.10;;
3700;SDS011;1866;48.374;10.766;2023-06-14T14:17:37;99.60;;;5.60;;
3700;SDS011;1866;48.374;10.766;2023-06-14T14:20:06;101.70;;;5.17;;
3700;SDS011;1866;48.374;10.766;2023-06-14T14:22:33;98.20;;;5.30;;
3700;SDS011;1866;48.374;10.766;2023-06-14T14:25:00;98.50;;;5.50;;
3700;SDS011;1866;48.374;10.766;2023-06-14T14:27:29;97.10;;;4.97;;
3700;SDS011;1866;48.374;10.766;2023-06-14T14:29:55;97.27;;;5.27;;
3700;SDS011;1866;48.374;10.766;2023-06-14T14:32:22;95.77;;;4.70;;
3700;SDS011;1866;48.374;10.766;2023-06-14T14:34:49;98.40;;;5.27;;
3700;SDS011;1866;48.374;10.766;2023-06-14T14:37:16;100.80;;;5.20;;
3700;SDS011;1866;48.374;10.766;2023-06-14T14:39:43;95.90;;;4.90;;
3700;SDS011;1866;48.374;10.766;2023-06-14T14:42:11;95.53;;;4.73;;
3700;SDS011;1866;48.374;10.766;2023-06-14T14:44:40;97.77;;;5.03;;
3700;SDS011;1866;48.374;10.766;2023-06-14T14:47:06;96.57;;;4.70;;
3700;SDS011;1866;48.374;10.766;2023-06-14T14:49:33;98.07;;;4.90;;
3700;SDS011;1866;48.374;10.766;2023-06-14T14:52:00;96.50;;;5.00;;
3700;SDS011;1866;48.374;10.766;2023-06-14T14:54:27;100.60;;;5.27;;
3700;SDS011;1866;48.374;10.766;2023-06-14T14:56:54;97.20;;;4.90;;
3700;SDS011;1866;48.374;10.766;2023-06-14T14:59:21;100.17;;;5.17;;
3700;SDS011;1866;48.374;10.766;2023-06-14T15:01:50;97.47;;;4.80;;
3700;SDS011;1866;48.374;10.766;2023-06-14T15:04:17;99.77;;;5.90;;
3700;SDS011;1866;48.374;10.766;2023-06-14T15:06:44;99.83;;;4.80;;
3700;SDS011;1866;48.374;10.766;2023-06-14T15:09:11;98.37;;;5.43;;
3700;SDS011;1866;48.374;10.766;2023-06-14T15:11:38;96.93;;;5.20;;
3700;SDS011;1866;48.374;10.766;2023-06-14T15:14:04;96.57;;;5.10;;
3700;SDS011;1866;48.374;10.766;2023-06-14T15:16:31;98.80;;;4.90;;
3700;SDS011;1866;48.374;10.766;2023-06-14T15:18:59;97.53;;;4.90;;
3700;SDS011;1866;48.374;10.766;2023-06-14T15:21:26;96.97;;;4.90;;
3700;SDS011;1866;48.374;10.766;2023-06-14T15:23:53;96.75;;;5.10;;
3700;SDS011;1866;48.374;10.766;2023-06-14T15:26:20;96.07;;;4.80;;
3700;SDS011;1866;48.374;10.766;2023-06-14T15:28:49;104.27;;;5.30;;
3700;SDS011;1866;48.374;10.766;2023-06-14T15:31:16;96.00;;;4.83;;
3700;SDS011;1866;48.374;10.766;2023-06-14T15:33:43;97.57;;;5.77;;
3700;SDS011;1866;48.374;10.766;2023-06-14T15:36:11;97.10;;;5.00;;
3700;SDS011;1866;48.374;10.766;2023-06-14T15:38:38;97.20;;;4.87;;
3700;SDS011;1866;48.374;10.766;2023-06-14T15:41:05;98.40;;;5.40;;
3700;SDS011;1866;48.374;10.766;2023-06-14T15:43:32;103.57;;;5.30;;
3700;SDS011;1866;48.374;10.766;2023-06-14T15:46:00;102.53;;;5.13;;
3700;SDS011;1866;48.374;10.766;2023-06-14T15:48:27;96.47;;;4.90;;
3700;SDS011;1866;48.374;10.766;2023-06-14T15:50:54;98.67;;;5.40;;
3700;SDS011;1866;48.374;10.766;2023-06-14T15:53:22;95.37;;;4.90;;
3700;SDS011;1866;48.374;10.766;2023-06-14T15:55:49;97.60;;;4.80;;
3700;SDS011;1866;48.374;10.766;2023-06-14T15:58:16;97.57;;;4.90;;
3700;SDS011;1866;48.374;10.766;2023-06-14T16:00:44;96.80;;;4.90;;
3700;SDS011;1866;48.374;10.766;2023-06-14T16:03:10;97.57;;;5.10;;
3700;SDS011;1866;48.374;10.766;2023-06-14T16:05:37;98.40;;;5.00;;
3700;SDS011;1866;48.374;10.766;2023-06-14T16:08:04;97.67;;;5.40;;
3700;SDS011;1866;48.374;10.766;2023-06-14T16:10:34;97.27;;;5.20;;
3700;SDS011;1866;48.374;10.766;2023-06-14T16:13:01;98.20;;;5.23;;
3700;SDS011;1866;48.374;10.766;2023-06-14T16:15:28;99.60;;;5.10;;
3700;SDS011;1866;48.374;10.766;2023-06-14T16:17:55;98.40;;;5.57;;
3700;SDS011;1866;48.374;10.766;2023-06-14T16:20:22;98.27;;;5.47;;
3700;SDS011;1866;48.374;10.766;2023-06-14T16:22:49;100.00;;;5.47;;
3700;SDS011;1866;48.374;10.766;2023-06-14T16:25:16;98.57;;;5.80;;
3700;SDS011;1866;48.374;10.766;2023-06-14T16:27:44;99.10;;;6.07;;
3700;SDS011;1866;48.374;10.766;2023-06-14T16:30:11;97.43;;;5.20;;
3700;SDS011;1866;48.374;10.766;2023-06-14T16:32:38;96.73;;;5.00;;
3700;SDS011;1866;48.374;10.766;2023-06-14T16:35:05;97.07;;;5.17;;
3700;SDS011;1866;48.374;10.766;2023-06-14T16:37:33;98.80;;;5.17;;
3700;SDS011;1866;48.374;10.766;2023-06-14T16:40:00;98.93;;;5.70;;
3700;SDS011;1866;48.374;10.766;2023-06-14T16:42:28;97.07;;;4.90;;
3700;SDS011;1866;48.374;10.766;2023-06-14T16:44:56;98.40;;;5.20;;
3700;SDS011;1866;48.374;10.766;2023-06-14T16:47:23;98.00;;;4.90;;
3700;SDS011;1866;48.374;10.766;2023-06-14T16:49:50;96.87;;;5.20;;
3700;SDS011;1866;48.374;10.766;2023-06-14T16:52:17;97.00;;;5.17;;
3700;SDS011;1866;48.374;10.766;2023-06-14T16:54:44;97.80;;;5.30;;
3700;SDS011;1866;48.374;10.766;2023-06-14T16:57:11;98.90;;;5.23;;
3700;SDS011;1866;48.374;10.766;2023-06-14T16:59:38;97.87;;;5.07;;
3700;SDS011;1866;48.374;10.766;2023-06-14T17:02:07;98.03;;;5.27;;
3700;SDS011;1866;48.374;10.766;2023-06-14T17:04:34;97.07;;;4.90;;
3700;SDS011;1866;48.374;10.766;2023-06-14T17:07:01;100.00;;;5.30;;
3700;SDS011;1866;48.374;10.766;2023-06-14T17:09:28;98.37;;;5.23;;
3700;SDS011;1866;48.374;10.766;2023-06-14T17:11:55;97.17;;;5.33;;
3700;SDS011;1866;48.374;10.766;2023-06-14T17:14:22;97.10;;;5.30;;
3700;SDS011;1866;48.374;10.766;2023-06-14T17:16:49;99.77;;;5.73;;
3700;SDS011;1866;48.374;10.766;2023-06-14T17:19:18;100.00;;;5.60;;